createdAt,value
2018-11-22T00:00:04.432Z,1021.26
2018-11-22T00:01:04.230Z,1021.23
2018-11-22T00:02:04.262Z,1021.29
2018-11-22T00:03:04.478Z,1021.25
2018-11-22T00:04:04.354Z,1021.3
2018-11-22T00:05:04.352Z,1021.36
2018-11-22T00:06:04.343Z,1021.33
2018-11-22T00:07:04.715Z,1021.38
2018-11-22T00:08:04.296Z,1021.38
2018-11-22T00:09:04.342Z,1021.39
2018-11-22T00:10:04.708Z,1021.43
2018-11-22T00:11:04.347Z,1021.39
2018-11-22T00:12:04.584Z,1021.4
2018-11-22T00:13:04.303Z,1021.42
2018-11-22T00:14:04.638Z,1021.43
2018-11-22T00:15:04.277Z,1021.42
2018-11-22T00:16:04.672Z,1021.44
2018-11-22T00:17:04.297Z,1021.46
2018-11-22T00:18:04.435Z,1021.46
2018-11-22T00:19:04.339Z,1021.46
2018-11-22T00:20:04.681Z,1021.51
2018-11-22T00:21:04.256Z,1021.46
2018-11-22T00:22:04.437Z,1021.44
2018-11-22T00:23:04.504Z,1021.44
2018-11-22T00:24:04.289Z,1021.46
2018-11-22T00:25:04.530Z,1021.44
2018-11-22T00:26:04.505Z,1021.43
2018-11-22T00:27:04.457Z,1021.47
2018-11-22T00:28:04.260Z,1021.47
2018-11-22T00:29:04.402Z,1021.42
2018-11-22T00:30:04.287Z,1021.43
2018-11-22T00:31:04.467Z,1021.47
2018-11-22T00:32:04.277Z,1021.47
2018-11-22T00:33:04.634Z,1021.49
2018-11-22T00:34:04.404Z,1021.52
2018-11-22T00:35:04.422Z,1021.48
2018-11-22T00:36:04.623Z,1021.47
2018-11-22T00:37:04.356Z,1021.48
2018-11-22T00:38:04.636Z,1021.46
2018-11-22T00:39:04.370Z,1021.51
2018-11-22T00:40:04.354Z,1021.54
2018-11-22T00:41:04.731Z,1021.52
2018-11-22T00:42:04.280Z,1021.49
2018-11-22T00:43:04.950Z,1021.48
2018-11-22T00:44:04.335Z,1021.47
2018-11-22T00:45:04.439Z,1021.5
2018-11-22T00:46:04.486Z,1021.46
2018-11-22T00:47:04.809Z,1021.46
2018-11-22T00:48:04.903Z,1021.46
2018-11-22T00:49:04.363Z,1021.46
2018-11-22T00:50:04.275Z,1021.5
2018-11-22T00:51:04.459Z,1021.51
2018-11-22T00:52:04.491Z,1021.56
2018-11-22T00:53:04.393Z,1021.56
2018-11-22T00:54:04.397Z,1021.56
2018-11-22T00:55:04.446Z,1021.55
2018-11-22T00:56:04.355Z,1021.56
2018-11-22T00:57:04.221Z,1021.56
2018-11-22T00:58:04.459Z,1021.57
2018-11-22T00:59:04.461Z,1021.63
2018-11-22T01:00:04.996Z,1021.6
2018-11-22T01:01:04.808Z,1021.56
2018-11-22T01:02:04.532Z,1021.57
2018-11-22T01:03:04.700Z,1021.66
2018-11-22T01:04:04.191Z,1021.66
2018-11-22T01:05:04.725Z,1021.65
2018-11-22T01:06:04.331Z,1021.64
2018-11-22T01:07:04.369Z,1021.65
2018-11-22T01:08:04.177Z,1021.65
2018-11-22T01:09:04.554Z,1021.68
2018-11-22T01:10:04.747Z,1021.66
2018-11-22T01:11:04.291Z,1021.67
2018-11-22T01:12:04.872Z,1021.66
2018-11-22T01:13:04.411Z,1021.68
2018-11-22T01:14:04.421Z,1021.62
2018-11-22T01:15:04.238Z,1021.66
2018-11-22T01:16:04.428Z,1021.67
2018-11-22T01:17:04.728Z,1021.66
2018-11-22T01:18:04.449Z,1021.66
2018-11-22T01:19:04.482Z,1021.69
2018-11-22T01:20:04.684Z,1021.7
2018-11-22T01:21:04.389Z,1021.7
2018-11-22T01:22:04.545Z,1021.72
2018-11-22T01:23:04.772Z,1021.72
2018-11-22T01:24:04.438Z,1021.71
2018-11-22T01:25:04.470Z,1021.72
2018-11-22T01:26:04.297Z,1021.7
2018-11-22T01:27:04.682Z,1021.7
2018-11-22T01:28:04.420Z,1021.72
2018-11-22T01:29:04.480Z,1021.74
2018-11-22T01:30:04.426Z,1021.71
2018-11-22T01:31:04.362Z,1021.71
2018-11-22T01:32:05.314Z,1021.73
2018-11-22T01:33:04.719Z,1021.72
2018-11-22T01:34:04.851Z,1021.74
2018-11-22T01:35:04.620Z,1021.73
2018-11-22T01:36:04.471Z,1021.74
2018-11-22T01:37:04.255Z,1021.72
2018-11-22T01:38:04.536Z,1021.67
2018-11-22T01:39:04.188Z,1021.7
2018-11-22T01:40:04.373Z,1021.69
2018-11-22T01:41:04.455Z,1021.72
2018-11-22T01:42:04.377Z,1021.69
2018-11-22T01:43:04.403Z,1021.67
2018-11-22T01:44:04.245Z,1021.7
2018-11-22T01:45:04.405Z,1021.68
2018-11-22T01:46:04.263Z,1021.71
2018-11-22T01:47:04.337Z,1021.71
2018-11-22T01:48:04.326Z,1021.71
2018-11-22T01:49:04.430Z,1021.74
2018-11-22T01:50:04.395Z,1021.68
2018-11-22T01:51:04.336Z,1021.7
2018-11-22T01:52:04.448Z,1021.7
2018-11-22T01:53:04.301Z,1021.72
2018-11-22T01:54:04.648Z,1021.69
2018-11-22T01:55:04.201Z,1021.71
2018-11-22T01:56:04.396Z,1021.73
2018-11-22T01:57:04.296Z,1021.67
2018-11-22T01:58:04.474Z,1021.65
2018-11-22T01:59:04.171Z,1021.66
2018-11-22T02:00:04.412Z,1021.7
2018-11-22T02:01:04.197Z,1021.64
2018-11-22T02:02:04.943Z,1021.64
2018-11-22T02:03:04.440Z,1021.64
2018-11-22T02:04:04.762Z,1021.66
2018-11-22T02:05:04.478Z,1021.63
2018-11-22T02:06:04.548Z,1021.66
2018-11-22T02:07:04.436Z,1021.65
2018-11-22T02:08:04.550Z,1021.64
2018-11-22T02:09:04.637Z,1021.68
2018-11-22T02:10:04.558Z,1021.65
2018-11-22T02:11:04.815Z,1021.67
2018-11-22T02:12:04.226Z,1021.7
2018-11-22T02:13:04.313Z,1021.66
2018-11-22T02:14:04.688Z,1021.65
2018-11-22T02:15:04.485Z,1021.64
2018-11-22T02:16:04.467Z,1021.64
2018-11-22T02:17:04.231Z,1021.65
2018-11-22T02:18:04.704Z,1021.67
2018-11-22T02:19:04.435Z,1021.67
2018-11-22T02:20:04.665Z,1021.67
2018-11-22T02:21:04.293Z,1021.68
2018-11-22T02:22:04.977Z,1021.62
2018-11-22T02:23:04.196Z,1021.66
2018-11-22T02:24:04.383Z,1021.69
2018-11-22T02:25:05.359Z,1021.68
2018-11-22T02:26:04.275Z,1021.64
2018-11-22T02:27:04.526Z,1021.65
2018-11-22T02:28:04.539Z,1021.64
2018-11-22T02:29:04.394Z,1021.61
2018-11-22T02:30:04.724Z,1021.64
2018-11-22T02:31:05.232Z,1021.63
2018-11-22T02:32:04.237Z,1021.67
2018-11-22T02:33:04.755Z,1021.61
2018-11-22T02:34:04.521Z,1021.59
2018-11-22T02:35:04.433Z,1021.66
2018-11-22T02:36:04.746Z,1021.63
2018-11-22T02:37:04.483Z,1021.61
2018-11-22T02:38:04.333Z,1021.62
2018-11-22T02:39:04.385Z,1021.59
2018-11-22T02:40:04.387Z,1021.59
2018-11-22T02:41:04.243Z,1021.6
2018-11-22T02:42:04.890Z,1021.63
2018-11-22T02:43:04.141Z,1021.58
2018-11-22T02:44:04.398Z,1021.57
2018-11-22T02:45:04.374Z,1021.61
2018-11-22T02:46:04.189Z,1021.6
2018-11-22T02:47:04.264Z,1021.61
2018-11-22T02:48:04.359Z,1021.57
2018-11-22T02:49:04.340Z,1021.57
2018-11-22T02:50:04.306Z,1021.61
2018-11-22T02:51:04.521Z,1021.63
2018-11-22T02:52:04.593Z,1021.63
2018-11-22T02:53:04.674Z,1021.6
2018-11-22T02:54:04.474Z,1021.63
2018-11-22T02:55:04.783Z,1021.61
2018-11-22T02:56:04.299Z,1021.61
2018-11-22T02:57:04.254Z,1021.62
2018-11-22T02:58:04.419Z,1021.63
2018-11-22T02:59:04.269Z,1021.59
2018-11-22T03:00:04.348Z,1021.61
2018-11-22T03:01:04.544Z,1021.58
2018-11-22T03:02:04.430Z,1021.58
2018-11-22T03:03:04.473Z,1021.61
2018-11-22T03:04:04.305Z,1021.62
2018-11-22T03:05:04.547Z,1021.61
2018-11-22T03:06:04.560Z,1021.6
2018-11-22T03:07:04.177Z,1021.56
2018-11-22T03:08:04.745Z,1021.57
2018-11-22T03:09:04.681Z,1021.54
2018-11-22T03:10:04.301Z,1021.55
2018-11-22T03:11:04.433Z,1021.56
2018-11-22T03:12:04.214Z,1021.56
2018-11-22T03:13:04.417Z,1021.58
2018-11-22T03:14:04.224Z,1021.59
2018-11-22T03:15:04.272Z,1021.56
2018-11-22T03:16:04.180Z,1021.56
2018-11-22T03:17:04.328Z,1021.54
2018-11-22T03:18:04.385Z,1021.6
2018-11-22T03:19:04.307Z,1021.57
2018-11-22T03:20:04.446Z,1021.59
2018-11-22T03:21:04.259Z,1021.56
2018-11-22T03:22:04.478Z,1021.58
2018-11-22T03:23:04.360Z,1021.62
2018-11-22T03:24:04.230Z,1021.59
2018-11-22T03:25:04.606Z,1021.58
2018-11-22T03:26:04.304Z,1021.61
2018-11-22T03:27:04.170Z,1021.59
2018-11-22T03:28:04.305Z,1021.62
2018-11-22T03:29:04.689Z,1021.63
2018-11-22T03:30:04.256Z,1021.61
2018-11-22T03:31:04.650Z,1021.59
2018-11-22T03:32:04.318Z,1021.6
2018-11-22T03:33:04.313Z,1021.54
2018-11-22T03:34:04.651Z,1021.54
2018-11-22T03:35:04.426Z,1021.56
2018-11-22T03:36:04.274Z,1021.57
2018-11-22T03:37:04.375Z,1021.55
2018-11-22T03:38:04.591Z,1021.55
2018-11-22T03:39:04.225Z,1021.58
2018-11-22T03:40:04.450Z,1021.55
2018-11-22T03:41:04.328Z,1021.57
2018-11-22T03:42:04.538Z,1021.58
2018-11-22T03:43:04.411Z,1021.57
2018-11-22T03:44:04.256Z,1021.55
2018-11-22T03:45:04.124Z,1021.54
2018-11-22T03:46:04.765Z,1021.54
2018-11-22T03:47:04.662Z,1021.55
2018-11-22T03:48:04.561Z,1021.61
2018-11-22T03:49:04.691Z,1021.56
2018-11-22T03:50:04.663Z,1021.55
2018-11-22T03:51:04.296Z,1021.59
2018-11-22T03:52:04.551Z,1021.55
2018-11-22T03:53:04.695Z,1021.58
2018-11-22T03:54:04.385Z,1021.59
2018-11-22T03:55:04.344Z,1021.54
2018-11-22T03:56:04.287Z,1021.56
2018-11-22T03:57:05.173Z,1021.56
2018-11-22T03:58:04.633Z,1021.58
2018-11-22T03:59:04.418Z,1021.58
2018-11-22T04:00:05.138Z,1021.63
2018-11-22T04:01:04.236Z,1021.59
2018-11-22T04:02:04.326Z,1021.62
2018-11-22T04:03:04.146Z,1021.62
2018-11-22T04:04:04.971Z,1021.69
2018-11-22T04:05:04.247Z,1021.69
2018-11-22T04:06:04.212Z,1021.68
2018-11-22T04:07:04.235Z,1021.65
2018-11-22T04:08:04.296Z,1021.61
2018-11-22T04:09:04.414Z,1021.64
2018-11-22T04:10:04.342Z,1021.65
2018-11-22T04:11:04.613Z,1021.64
2018-11-22T04:12:04.255Z,1021.55
2018-11-22T04:13:04.353Z,1021.56
2018-11-22T04:14:04.324Z,1021.58
2018-11-22T04:15:04.342Z,1021.67
2018-11-22T04:16:04.402Z,1021.64
2018-11-22T04:17:04.521Z,1021.67
2018-11-22T04:18:04.742Z,1021.63
2018-11-22T04:19:04.386Z,1021.7
2018-11-22T04:20:04.437Z,1021.7
2018-11-22T04:21:04.601Z,1021.69
2018-11-22T04:22:04.596Z,1021.72
2018-11-22T04:23:04.169Z,1021.69
2018-11-22T04:24:04.424Z,1021.65
2018-11-22T04:25:04.762Z,1021.77
2018-11-22T04:26:04.701Z,1021.77
2018-11-22T04:27:04.162Z,1021.73
2018-11-22T04:28:04.246Z,1021.72
2018-11-22T04:29:04.324Z,1021.76
2018-11-22T04:30:04.448Z,1021.73
2018-11-22T04:31:04.793Z,1021.76
2018-11-22T04:32:04.666Z,1021.83
2018-11-22T04:33:04.410Z,1021.77
2018-11-22T04:34:04.567Z,1021.75
2018-11-22T04:35:04.338Z,1021.77
2018-11-22T04:36:04.263Z,1021.8
2018-11-22T04:37:04.231Z,1021.8
2018-11-22T04:38:04.431Z,1021.75
2018-11-22T04:39:04.126Z,1021.8
2018-11-22T04:40:04.736Z,1021.77
2018-11-22T04:41:04.422Z,1021.8
2018-11-22T04:42:04.317Z,1021.81
2018-11-22T04:43:04.136Z,1021.81
2018-11-22T04:44:04.550Z,1021.82
2018-11-22T04:45:04.211Z,1021.75
2018-11-22T04:46:04.283Z,1021.74
2018-11-22T04:47:04.107Z,1021.76
2018-11-22T04:48:04.185Z,1021.75
2018-11-22T04:49:04.181Z,1021.73
2018-11-22T04:50:04.393Z,1021.78
2018-11-22T04:51:04.683Z,1021.77
2018-11-22T04:52:04.311Z,1021.79
2018-11-22T04:53:04.333Z,1021.78
2018-11-22T04:54:04.201Z,1021.8
2018-11-22T04:55:04.405Z,1021.81
2018-11-22T04:56:04.366Z,1021.83
2018-11-22T04:57:04.355Z,1021.79
2018-11-22T04:58:04.177Z,1021.8
2018-11-22T04:59:04.098Z,1021.77
2018-11-22T05:00:04.255Z,1021.81
2018-11-22T05:01:04.391Z,1021.75
2018-11-22T05:02:04.053Z,1021.73
2018-11-22T05:03:04.250Z,1021.8
2018-11-22T05:04:04.688Z,1021.81
2018-11-22T05:05:04.201Z,1021.75
2018-11-22T05:06:04.477Z,1021.77
2018-11-22T05:07:04.180Z,1021.77
2018-11-22T05:08:04.273Z,1021.78
2018-11-22T05:09:04.141Z,1021.8
2018-11-22T05:10:04.487Z,1021.78
2018-11-22T05:11:04.532Z,1021.76
2018-11-22T05:12:04.235Z,1021.82
2018-11-22T05:13:04.084Z,1021.78
2018-11-22T05:14:04.260Z,1021.8
2018-11-22T05:15:04.217Z,1021.76
2018-11-22T05:16:04.496Z,1021.75
2018-11-22T05:17:04.000Z,1021.84
2018-11-22T05:18:04.389Z,1021.85
2018-11-22T05:19:04.270Z,1021.83
2018-11-22T05:20:04.199Z,1021.86
2018-11-22T05:21:04.320Z,1021.85
2018-11-22T05:22:04.212Z,1021.81
2018-11-22T05:23:04.230Z,1021.85
2018-11-22T05:24:04.403Z,1021.9
2018-11-22T05:25:04.593Z,1021.89
2018-11-22T05:26:04.237Z,1021.88
2018-11-22T05:27:04.309Z,1021.9
2018-11-22T05:28:04.573Z,1021.93
2018-11-22T05:29:04.260Z,1021.88
2018-11-22T05:30:04.335Z,1021.91
2018-11-22T05:31:04.534Z,1021.89
2018-11-22T05:32:04.478Z,1021.92
2018-11-22T05:33:04.092Z,1021.94
2018-11-22T05:34:04.359Z,1021.94
2018-11-22T05:35:04.086Z,1021.91
2018-11-22T05:36:04.216Z,1021.97
2018-11-22T05:37:04.306Z,1021.94
2018-11-22T05:38:04.262Z,1021.94
2018-11-22T05:39:04.751Z,1021.96
2018-11-22T05:40:04.344Z,1021.96
2018-11-22T05:41:04.596Z,1022
2018-11-22T05:42:04.103Z,1021.98
2018-11-22T05:43:04.506Z,1021.95
2018-11-22T05:44:04.240Z,1021.97
2018-11-22T05:45:04.488Z,1021.96
2018-11-22T05:46:04.603Z,1021.96
2018-11-22T05:47:04.288Z,1021.97
2018-11-22T05:48:04.257Z,1021.97
2018-11-22T05:49:04.173Z,1021.98
2018-11-22T05:50:04.266Z,1021.99
2018-11-22T05:51:04.178Z,1022.01
2018-11-22T05:52:04.311Z,1021.99
2018-11-22T05:53:04.214Z,1022.03
2018-11-22T05:54:04.421Z,1022.01
2018-11-22T05:55:04.235Z,1022
2018-11-22T05:56:04.252Z,1022
2018-11-22T05:57:04.380Z,1021.99
2018-11-22T05:58:04.708Z,1022.03
2018-11-22T05:59:04.334Z,1022.02
2018-11-22T06:00:04.469Z,1022
2018-11-22T06:01:04.698Z,1021.98
2018-11-22T06:02:04.391Z,1022
2018-11-22T06:03:04.184Z,1021.99
2018-11-22T06:04:04.614Z,1021.93
2018-11-22T06:05:04.235Z,1021.97
2018-11-22T06:06:04.380Z,1021.94
2018-11-22T06:07:04.131Z,1021.92
2018-11-22T06:08:04.412Z,1021.94
2018-11-22T06:09:04.148Z,1021.99
2018-11-22T06:10:04.334Z,1021.91
2018-11-22T06:11:04.086Z,1021.97
2018-11-22T06:12:04.426Z,1021.91
2018-11-22T06:13:04.431Z,1021.96
2018-11-22T06:14:04.173Z,1021.92
2018-11-22T06:15:04.249Z,1021.91
2018-11-22T06:16:04.350Z,1021.93
2018-11-22T06:17:04.058Z,1021.94
2018-11-22T06:18:04.076Z,1021.92
2018-11-22T06:19:04.295Z,1021.92
2018-11-22T06:20:04.154Z,1021.91
2018-11-22T06:21:04.196Z,1021.93
2018-11-22T06:22:04.282Z,1021.89
2018-11-22T06:23:04.681Z,1021.93
2018-11-22T06:24:04.183Z,1021.91
2018-11-22T06:25:04.158Z,1021.95
2018-11-22T06:26:04.024Z,1021.91
2018-11-22T06:27:04.136Z,1021.88
2018-11-22T06:28:04.227Z,1021.91
2018-11-22T06:29:04.029Z,1021.9
2018-11-22T06:30:04.197Z,1021.87
2018-11-22T06:31:06.608Z,1021.87
2018-11-22T06:32:04.969Z,1021.88
2018-11-22T06:33:04.722Z,1021.89
2018-11-22T06:34:04.143Z,1021.88
2018-11-22T06:35:04.212Z,1021.87
2018-11-22T06:36:04.234Z,1021.85
2018-11-22T06:37:04.046Z,1021.82
2018-11-22T06:38:04.576Z,1021.86
2018-11-22T06:39:04.537Z,1021.9
2018-11-22T06:40:04.319Z,1021.97
2018-11-22T06:41:04.252Z,1021.93
2018-11-22T06:42:04.275Z,1021.94
2018-11-22T06:43:04.125Z,1021.92
2018-11-22T06:44:04.905Z,1022
2018-11-22T06:45:04.489Z,1021.99
2018-11-22T06:46:04.223Z,1022.01
2018-11-22T06:47:04.024Z,1022.01
2018-11-22T06:48:04.135Z,1022.07
2018-11-22T06:49:04.125Z,1022.05
2018-11-22T06:50:04.283Z,1022.06
2018-11-22T06:51:04.739Z,1022.07
2018-11-22T06:52:04.317Z,1022.03
2018-11-22T06:53:04.727Z,1022.08
2018-11-22T06:54:04.208Z,1022.04
2018-11-22T06:55:04.575Z,1022.06
2018-11-22T06:56:04.195Z,1022.05
2018-11-22T06:57:04.023Z,1022.1
2018-11-22T06:58:04.474Z,1022.08
2018-11-22T06:59:04.992Z,1022.09
2018-11-22T07:00:04.101Z,1022.05
2018-11-22T07:01:04.397Z,1022.06
2018-11-22T07:02:04.383Z,1022.01
2018-11-22T07:03:04.460Z,1022.07
2018-11-22T07:04:04.683Z,1022.04
2018-11-22T07:05:04.285Z,1022.03
2018-11-22T07:06:04.270Z,1022.05
2018-11-22T07:07:04.209Z,1022.03
2018-11-22T07:08:04.374Z,1022.03
2018-11-22T07:09:04.368Z,1022.06
2018-11-22T07:10:04.297Z,1022.07
2018-11-22T07:11:04.294Z,1022.07
2018-11-22T07:12:04.417Z,1022.05
2018-11-22T07:13:04.397Z,1022.03
2018-11-22T07:14:04.178Z,1022.05
2018-11-22T07:15:04.217Z,1022.08
2018-11-22T07:16:04.478Z,1022.08
2018-11-22T07:17:04.415Z,1022.05
2018-11-22T07:18:04.169Z,1022.05
2018-11-22T07:19:04.397Z,1022.03
2018-11-22T07:20:04.092Z,1022.04
2018-11-22T07:21:04.186Z,1021.99
2018-11-22T07:22:04.359Z,1022.02
2018-11-22T07:23:04.464Z,1022.03
2018-11-22T07:24:03.983Z,1022.03
2018-11-22T07:25:04.263Z,1021.97
2018-11-22T07:26:04.362Z,1021.97
2018-11-22T07:27:04.457Z,1021.99
2018-11-22T07:28:04.511Z,1022
2018-11-22T07:29:04.319Z,1022.01
2018-11-22T07:30:04.484Z,1021.98
2018-11-22T07:31:04.312Z,1021.99
2018-11-22T07:32:04.315Z,1021.97
2018-11-22T07:33:04.629Z,1022.03
2018-11-22T07:34:04.557Z,1021.98
2018-11-22T07:35:04.210Z,1022
2018-11-22T07:36:04.523Z,1021.98
2018-11-22T07:37:04.241Z,1021.99
2018-11-22T07:38:04.264Z,1021.97
2018-11-22T07:39:04.365Z,1021.93
2018-11-22T07:40:04.178Z,1021.99
2018-11-22T07:41:05.135Z,1021.93
2018-11-22T07:42:04.054Z,1021.98
2018-11-22T07:43:04.337Z,1021.96
2018-11-22T07:44:04.132Z,1021.99
2018-11-22T07:45:04.120Z,1021.97
2018-11-22T07:46:04.378Z,1021.96
2018-11-22T07:47:04.147Z,1022
2018-11-22T07:48:04.044Z,1021.97
2018-11-22T07:49:04.095Z,1022.01
2018-11-22T07:50:04.555Z,1022.04
2018-11-22T07:51:04.473Z,1022.03
2018-11-22T07:52:04.194Z,1022.03
2018-11-22T07:53:04.061Z,1022.04
2018-11-22T07:54:04.582Z,1022.08
2018-11-22T07:55:04.089Z,1022.07
2018-11-22T07:56:04.259Z,1022.13
2018-11-22T07:57:03.880Z,1022.16
2018-11-22T07:58:04.109Z,1022.14
2018-11-22T07:59:04.143Z,1022.15
2018-11-22T08:00:04.043Z,1022.13
2018-11-22T08:01:04.239Z,1022.16
2018-11-22T08:02:04.096Z,1022.14
2018-11-22T08:03:04.175Z,1022.12
2018-11-22T08:04:04.103Z,1022.11
2018-11-22T08:05:04.160Z,1022.14
2018-11-22T08:06:04.475Z,1022.15
2018-11-22T08:07:04.875Z,1022.14
2018-11-22T08:08:04.279Z,1022.14
2018-11-22T08:09:04.223Z,1022.13
2018-11-22T08:10:04.347Z,1022.1
2018-11-22T08:11:04.110Z,1022.13
2018-11-22T08:12:04.249Z,1022.13
2018-11-22T08:13:04.057Z,1022.14
2018-11-22T08:14:04.424Z,1022.12
2018-11-22T08:15:04.322Z,1022.08
2018-11-22T08:16:04.136Z,1022.09
2018-11-22T08:17:04.073Z,1022.14
2018-11-22T08:18:04.437Z,1022.16
2018-11-22T08:19:04.706Z,1022.18
2018-11-22T08:20:04.760Z,1022.18
2018-11-22T08:21:05.147Z,1022.15
2018-11-22T08:22:04.027Z,1022.12
2018-11-22T08:23:04.675Z,1022.17
2018-11-22T08:24:04.587Z,1022.18
2018-11-22T08:25:04.724Z,1022.17
2018-11-22T08:26:04.564Z,1022.14
2018-11-22T08:27:04.308Z,1022.16
2018-11-22T08:28:04.683Z,1022.19
2018-11-22T08:29:04.210Z,1022.17
2018-11-22T08:30:04.371Z,1022.15
2018-11-22T08:31:04.140Z,1022.18
2018-11-22T08:32:04.860Z,1022.17
2018-11-22T08:33:04.272Z,1022.16
2018-11-22T08:34:04.223Z,1022.17
2018-11-22T08:35:04.093Z,1022.16
2018-11-22T08:36:04.217Z,1022.2
2018-11-22T08:37:04.201Z,1022.22
2018-11-22T08:38:04.085Z,1022.19
2018-11-22T08:39:04.147Z,1022.23
2018-11-22T08:40:04.032Z,1022.25
2018-11-22T08:41:04.590Z,1022.3
2018-11-22T08:42:04.095Z,1022.29
2018-11-22T08:43:04.121Z,1022.23
2018-11-22T08:44:04.433Z,1022.23
2018-11-22T08:45:04.389Z,1022.24
2018-11-22T08:46:04.213Z,1022.22
2018-11-22T08:47:04.345Z,1022.26
2018-11-22T08:48:04.369Z,1022.24
2018-11-22T08:49:04.062Z,1022.21
2018-11-22T08:50:04.151Z,1022.23
2018-11-22T08:51:04.187Z,1022.24
2018-11-22T08:52:04.168Z,1022.28
2018-11-22T08:53:04.507Z,1022.26
2018-11-22T08:54:04.244Z,1022.29
2018-11-22T08:55:04.448Z,1022.29
2018-11-22T08:56:04.184Z,1022.24
2018-11-22T08:57:04.602Z,1022.3
2018-11-22T08:58:04.257Z,1022.34
2018-11-22T08:59:04.431Z,1022.38
2018-11-22T09:00:04.384Z,1022.39
2018-11-22T09:01:04.345Z,1022.41
2018-11-22T09:02:03.961Z,1022.44
2018-11-22T09:03:04.656Z,1022.46
2018-11-22T09:04:04.681Z,1022.45
2018-11-22T09:05:04.444Z,1022.42
2018-11-22T09:06:04.171Z,1022.46
2018-11-22T09:07:04.124Z,1022.49
2018-11-22T09:08:04.410Z,1022.47
2018-11-22T09:09:04.706Z,1022.5
2018-11-22T09:10:04.314Z,1022.48
2018-11-22T09:11:03.997Z,1022.48
2018-11-22T09:12:04.332Z,1022.49
2018-11-22T09:13:05.160Z,1022.45
2018-11-22T09:14:04.226Z,1022.47
2018-11-22T09:15:04.268Z,1022.55
2018-11-22T09:16:04.053Z,1022.52
2018-11-22T09:17:04.460Z,1022.57
2018-11-22T09:18:04.146Z,1022.51
2018-11-22T09:19:04.079Z,1022.56
2018-11-22T09:20:04.016Z,1022.52
2018-11-22T09:21:04.067Z,1022.56
2018-11-22T09:22:04.137Z,1022.56
2018-11-22T09:23:04.122Z,1022.54
2018-11-22T09:24:04.280Z,1022.53
2018-11-22T09:25:04.109Z,1022.53
2018-11-22T09:26:04.102Z,1022.58
2018-11-22T09:27:04.233Z,1022.58
2018-11-22T09:28:04.122Z,1022.61
2018-11-22T09:29:04.028Z,1022.63
2018-11-22T09:30:04.439Z,1022.66
2018-11-22T09:31:04.507Z,1022.63
2018-11-22T09:32:03.949Z,1022.58
2018-11-22T09:33:04.005Z,1022.59
2018-11-22T09:34:04.148Z,1022.61
2018-11-22T09:35:04.144Z,1022.59
2018-11-22T09:36:04.207Z,1022.57
2018-11-22T09:37:04.499Z,1022.62
2018-11-22T09:38:04.223Z,1022.63
2018-11-22T09:39:04.219Z,1022.61
2018-11-22T09:40:04.028Z,1022.72
2018-11-22T09:41:04.205Z,1022.67
2018-11-22T09:42:04.432Z,1022.66
2018-11-22T09:43:04.776Z,1022.66
2018-11-22T09:44:04.002Z,1022.7
2018-11-22T09:45:04.194Z,1022.72
2018-11-22T09:46:04.248Z,1022.73
2018-11-22T09:47:04.158Z,1022.72
2018-11-22T09:48:04.186Z,1022.73
2018-11-22T09:49:04.019Z,1022.73
2018-11-22T09:50:04.253Z,1022.78
2018-11-22T09:51:04.471Z,1022.75
2018-11-22T09:52:04.089Z,1022.83
2018-11-22T09:53:03.970Z,1022.76
2018-11-22T09:54:04.156Z,1022.76
2018-11-22T09:55:04.492Z,1022.76
2018-11-22T09:56:04.142Z,1022.73
2018-11-22T09:57:04.432Z,1022.7
2018-11-22T09:58:04.360Z,1022.67
2018-11-22T09:59:04.305Z,1022.69
2018-11-22T10:00:04.159Z,1022.68
2018-11-22T10:01:05.158Z,1022.66
2018-11-22T10:02:03.958Z,1022.72
2018-11-22T10:03:04.968Z,1022.67
2018-11-22T10:04:04.197Z,1022.64
2018-11-22T10:05:05.242Z,1022.66
2018-11-22T10:06:04.181Z,1022.65
2018-11-22T10:07:04.047Z,1022.65
2018-11-22T10:08:04.277Z,1022.62
2018-11-22T10:09:04.448Z,1022.64
2018-11-22T10:10:04.127Z,1022.67
2018-11-22T10:11:04.246Z,1022.67
2018-11-22T10:12:04.047Z,1022.69
2018-11-22T10:13:04.361Z,1022.7
2018-11-22T10:14:03.990Z,1022.7
2018-11-22T10:15:04.175Z,1022.67
2018-11-22T10:16:04.384Z,1022.68
2018-11-22T10:17:04.477Z,1022.7
2018-11-22T10:18:04.476Z,1022.7
2018-11-22T10:19:04.355Z,1022.69
2018-11-22T10:20:05.378Z,1022.69
2018-11-22T10:21:03.966Z,1022.72
2018-11-22T10:22:04.120Z,1022.7
2018-11-22T10:23:04.189Z,1022.69
2018-11-22T10:24:04.410Z,1022.69
2018-11-22T10:25:04.736Z,1022.69
2018-11-22T10:26:04.062Z,1022.64
2018-11-22T10:27:04.515Z,1022.67
2018-11-22T10:28:04.057Z,1022.68
2018-11-22T10:29:04.174Z,1022.72
2018-11-22T10:30:04.138Z,1022.67
2018-11-22T10:31:04.384Z,1022.69
2018-11-22T10:32:04.448Z,1022.68
2018-11-22T10:33:04.328Z,1022.65
2018-11-22T10:34:04.159Z,1022.67
2018-11-22T10:35:04.518Z,1022.69
2018-11-22T10:36:04.377Z,1022.65
2018-11-22T10:37:03.994Z,1022.63
2018-11-22T10:38:05.112Z,1022.66
2018-11-22T10:39:04.669Z,1022.62
2018-11-22T10:40:04.039Z,1022.58
2018-11-22T10:41:03.926Z,1022.56
2018-11-22T10:42:04.116Z,1022.59
2018-11-22T10:44:04.046Z,1022.57
2018-11-22T10:45:04.497Z,1022.58
2018-11-22T10:46:04.210Z,1022.57
2018-11-22T10:47:04.268Z,1022.59
2018-11-22T10:48:04.012Z,1022.54
2018-11-22T10:49:04.036Z,1022.53
2018-11-22T10:50:04.174Z,1022.56
2018-11-22T10:51:04.326Z,1022.52
2018-11-22T10:52:03.881Z,1022.51
2018-11-22T10:53:03.975Z,1022.48
2018-11-22T10:54:04.093Z,1022.52
2018-11-22T10:55:03.976Z,1022.53
2018-11-22T10:56:03.991Z,1022.51
2018-11-22T10:57:04.211Z,1022.48
2018-11-22T10:58:04.061Z,1022.54
2018-11-22T10:59:04.145Z,1022.55
2018-11-22T11:00:04.048Z,1022.58
2018-11-22T11:01:04.356Z,1022.59
2018-11-22T11:02:03.903Z,1022.57
2018-11-22T11:03:03.955Z,1022.6
2018-11-22T11:04:04.202Z,1022.62
2018-11-22T11:05:04.045Z,1022.62
2018-11-22T11:06:04.056Z,1022.6
2018-11-22T11:07:03.973Z,1022.56
2018-11-22T11:08:04.521Z,1022.53
2018-11-22T11:09:03.955Z,1022.53
2018-11-22T11:10:04.318Z,1022.56
2018-11-22T11:11:04.019Z,1022.52
2018-11-22T11:12:04.060Z,1022.52
2018-11-22T11:13:04.120Z,1022.49
2018-11-22T11:14:04.140Z,1022.53
2018-11-22T11:15:04.142Z,1022.49
2018-11-22T11:16:04.185Z,1022.51
2018-11-22T11:17:04.353Z,1022.52
2018-11-22T11:18:04.255Z,1022.48
2018-11-22T11:19:04.412Z,1022.5
2018-11-22T11:20:04.040Z,1022.47
2018-11-22T11:21:04.088Z,1022.49
2018-11-22T11:22:04.273Z,1022.46
2018-11-22T11:23:04.872Z,1022.42
2018-11-22T11:24:04.889Z,1022.42
2018-11-22T11:25:04.020Z,1022.39
2018-11-22T11:26:04.345Z,1022.32
2018-11-22T11:27:04.256Z,1022.39
2018-11-22T11:28:03.868Z,1022.41
2018-11-22T11:29:04.493Z,1022.41
2018-11-22T11:30:04.056Z,1022.37
2018-11-22T11:31:04.561Z,1022.35
2018-11-22T11:32:04.118Z,1022.38
2018-11-22T11:33:04.358Z,1022.36
2018-11-22T11:34:04.488Z,1022.35
2018-11-22T11:35:04.218Z,1022.39
2018-11-22T11:36:04.073Z,1022.41
2018-11-22T11:37:04.578Z,1022.37
2018-11-22T11:38:04.192Z,1022.41
2018-11-22T11:39:04.828Z,1022.44
2018-11-22T11:40:03.998Z,1022.39
2018-11-22T11:41:04.514Z,1022.42
2018-11-22T11:42:04.463Z,1022.42
2018-11-22T11:43:03.967Z,1022.47
2018-11-22T11:44:04.151Z,1022.43
2018-11-22T11:45:04.240Z,1022.43
2018-11-22T11:46:04.120Z,1022.45
2018-11-22T11:47:04.009Z,1022.4
2018-11-22T11:48:04.093Z,1022.42
2018-11-22T11:49:04.201Z,1022.38
2018-11-22T11:50:04.305Z,1022.39
2018-11-22T11:51:04.304Z,1022.33
2018-11-22T11:52:04.996Z,1022.35
2018-11-22T11:53:04.441Z,1022.33
2018-11-22T11:54:04.030Z,1022.37
2018-11-22T11:55:04.374Z,1022.4
2018-11-22T11:56:03.994Z,1022.36
2018-11-22T11:57:04.242Z,1022.35
2018-11-22T11:58:04.021Z,1022.34
2018-11-22T11:59:03.915Z,1022.39
2018-11-22T12:00:05.051Z,1022.35
2018-11-22T12:01:03.912Z,1022.36
2018-11-22T12:02:04.174Z,1022.33
2018-11-22T12:03:04.065Z,1022.32
2018-11-22T12:04:04.208Z,1022.36
2018-11-22T12:05:04.143Z,1022.3
2018-11-22T12:06:04.036Z,1022.32
2018-11-22T12:07:04.071Z,1022.31
2018-11-22T12:08:04.099Z,1022.3
2018-11-22T12:09:04.366Z,1022.28